Time;durP1;ratioP1;P1;durP2;ratioP2;P2;SDS_P1;SDS_P2;PMS_P1;PMS_P2;Temp;Humidity;BMP_temperature;BMP_pressure;BME280_temperature;BME280_humidity;BME280_pressure;Samples;Min_cycle;Max_cycle;Signal;HPM_P1;HPM_P2
2021/10/30 00:00:52;;;;;;;393.15;60.10;;;;;;;4.25;100.00;96243.34;4981562;28;20074;-58
2021/10/30 00:03:18;;;;;;;339.30;60.78;;;;;;;4.30;100.00;96251.25;4978770;28;20046;-59
2021/10/30 00:05:48;;;;;;;227.10;52.78;;;;;;;4.30;100.00;96252.03;4984777;28;20046;-59
2021/10/30 00:08:13;;;;;;;321.95;55.35;;;;;;;4.30;100.00;96246.63;4979090;28;20084;-59
2021/10/30 00:10:39;;;;;;;275.08;52.40;;;;;;;4.18;100.00;96255.53;4984856;28;20516;-60
2021/10/30 00:13:04;;;;;;;176.75;48.05;;;;;;;4.32;100.00;96252.53;4977424;28;20442;-61
2021/10/30 00:15:30;;;;;;;170.35;48.05;;;;;;;4.56;100.00;96253.69;4975852;28;20570;-56
2021/10/30 00:17:56;;;;;;;190.27;49.03;;;;;;;4.72;100.00;96257.28;4981663;28;20414;-56
2021/10/30 00:20:22;;;;;;;310.08;51.45;;;;;;;4.37;100.00;96256.94;4969996;28;20058;-58
2021/10/30 00:22:48;;;;;;;259.00;49.50;;;;;;;4.30;100.00;96238.50;4983675;28;20064;-58
2021/10/30 00:25:13;;;;;;;231.70;50.75;;;;;;;4.26;100.00;96239.53;4978116;28;20129;-59
2021/10/30 00:27:39;;;;;;;300.23;51.63;;;;;;;4.20;100.00;96247.88;5003259;28;20064;-60
2021/10/30 00:30:05;;;;;;;172.05;45.92;;;;;;;4.31;100.00;96248.22;4989436;28;20045;-59
2021/10/30 00:32:30;;;;;;;163.63;45.05;;;;;;;4.66;100.00;96241.56;4981967;28;20077;-59
2021/10/30 00:34:56;;;;;;;165.80;47.00;;;;;;;4.45;100.00;96238.97;4981797;28;20499;-57
2021/10/30 00:37:21;;;;;;;242.43;48.50;;;;;;;4.38;100.00;96242.25;4973626;28;20072;-60
2021/10/30 00:39:47;;;;;;;244.95;53.45;;;;;;;4.43;100.00;96224.94;4982648;28;20397;-60
2021/10/30 00:42:12;;;;;;;424.38;53.40;;;;;;;4.25;100.00;96229.78;4976726;28;20522;-60
2021/10/30 00:44:38;;;;;;;319.08;51.05;;;;;;;4.19;100.00;96231.94;4981893;28;20046;-60
2021/10/30 00:47:04;;;;;;;330.98;54.53;;;;;;;4.17;100.00;96223.34;4978751;28;20073;-59
2021/10/30 00:49:32;;;;;;;450.98;59.45;;;;;;;4.12;100.00;96208.09;4983065;28;20050;-57
2021/10/30 00:51:57;;;;;;;275.67;54.65;;;;;;;4.16;100.00;96210.91;4970926;28;20085;-57
2021/10/30 00:54:24;;;;;;;234.88;56.75;;;;;;;4.14;100.00;96208.56;4978164;28;20066;-55
2021/10/30 00:56:53;;;;;;;270.05;52.45;;;;;;;4.09;100.00;96199.84;4982955;28;20062;-56
2021/10/30 00:59:20;;;;;;;262.05;49.97;;;;;;;4.06;100.00;96204.03;4976519;28;20038;-57
2021/10/30 01:01:48;;;;;;;231.18;51.28;;;;;;;4.09;100.00;96197.94;4982010;28;20042;-61
2021/10/30 01:04:15;;;;;;;205.93;48.55;;;;;;;4.12;100.00;96193.75;4977605;28;20042;-59
2021/10/30 01:06:43;;;;;;;154.32;46.50;;;;;;;4.27;100.00;96187.69;4982003;28;20582;-57
2021/10/30 01:09:09;;;;;;;365.38;52.47;;;;;;;4.11;100.00;96192.97;4977953;28;20407;-58
2021/10/30 01:11:35;;;;;;;164.43;46.63;;;;;;;4.10;100.00;96190.59;4976904;28;20051;-60
2021/10/30 01:14:02;;;;;;;508.45;59.78;;;;;;;3.96;100.00;96201.72;4981467;28;20042;-59
2021/10/30 01:16:28;;;;;;;365.73;53.88;;;;;;;3.87;100.00;96201.03;4973597;28;20050;-57
2021/10/30 01:18:53;;;;;;;297.73;53.60;;;;;;;3.83;100.00;96192.78;4979828;28;20046;-58
2021/10/30 01:21:34;;;;;;;243.63;53.15;;;;;;;4.09;100.00;96206.06;4975430;28;20101;-60
2021/10/30 01:24:01;;;;;;;161.48;46.10;;;;;;;4.33;100.00;96197.16;4963621;28;20097;-57
2021/10/30 01:26:28;;;;;;;201.43;48.53;;;;;;;4.44;100.00;96185.88;4980947;28;20053;-60
2021/10/30 01:28:53;;;;;;;134.30;42.97;;;;;;;4.55;100.00;96182.34;4988789;28;20050;-62
2021/10/30 01:31:23;;;;;;;133.65;44.22;;;;;;;4.63;100.00;96196.13;4984404;28;20039;-60
2021/10/30 01:33:51;;;;;;;129.95;41.58;;;;;;;4.63;100.00;96196.13;4990513;28;20053;-60
2021/10/30 01:36:19;;;;;;;125.75;41.45;;;;;;;4.63;100.00;96185.28;4977813;28;20042;-58
2021/10/30 01:38:45;;;;;;;135.48;42.13;;;;;;;4.59;100.00;96174.31;4999475;28;20174;-60
2021/10/30 01:41:11;;;;;;;117.95;41.15;;;;;;;4.72;100.00;96170.47;4998879;28;20101;-60
2021/10/30 01:43:38;;;;;;;133.63;38.80;;;;;;;4.21;100.00;96167.31;4993771;28;20034;-58
2021/10/30 01:46:04;;;;;;;105.05;36.35;;;;;;;4.13;100.00;96176.38;4985279;28;20454;-61
2021/10/30 01:48:35;;;;;;;273.60;43.10;;;;;;;4.07;100.00;96166.88;4993849;28;20042;-61
2021/10/30 01:51:00;;;;;;;115.75;37.88;;;;;;;4.12;100.00;96162.00;4989039;28;20069;-59
2021/10/30 01:53:27;;;;;;;154.13;39.90;;;;;;;3.98;100.00;96161.53;4982932;28;20058;-61
2021/10/30 01:55:52;;;;;;;172.38;40.28;;;;;;;3.94;100.00;96152.50;4993148;28;20573;-61
2021/10/30 01:58:18;;;;;;;235.88;41.80;;;;;;;3.81;100.00;96149.00;4986575;28;20042;-58
2021/10/30 02:00:47;;;;;;;141.18;39.17;;;;;;;3.72;100.00;96138.25;4966810;28;20130;-58
2021/10/30 02:03:13;;;;;;;143.27;38.50;;;;;;;3.68;100.00;96136.56;4974681;28;20041;-60
2021/10/30 02:05:40;;;;;;;150.43;40.17;;;;;;;3.60;100.00;96133.63;5000834;28;20084;-61
2021/10/30 02:08:05;;;;;;;141.63;38.38;;;;;;;3.54;100.00;96128.75;4997130;28;20065;-59
2021/10/30 02:10:31;;;;;;;107.25;37.05;;;;;;;3.55;100.00;96116.78;4997260;28;20045;-59
2021/10/30 02:12:56;;;;;;;106.25;35.38;;;;;;;3.41;100.00;96115.16;4994961;28;20050;-60
2021/10/30 02:15:22;;;;;;;100.18;35.50;;;;;;;3.16;100.00;96127.03;4972648;28;20058;-61
2021/10/30 02:17:48;;;;;;;103.82;36.40;;;;;;;3.04;100.00;96136.69;4981826;28;20491;-58
2021/10/30 02:20:15;;;;;;;106.32;34.58;;;;;;;3.16;100.00;96138.66;4975240;28;20042;-56
2021/10/30 02:22:40;;;;;;;107.22;35.15;;;;;;;3.09;100.00;96140.31;4983533;28;20042;-61
2021/10/30 02:25:08;;;;;;;117.00;39.33;;;;;;;2.99;100.00;96138.78;4992094;28;20049;-59
2021/10/30 02:27:34;;;;;;;103.43;35.17;;;;;;;2.95;100.00;96125.13;4990016;28;20569;-60
2021/10/30 02:29:59;;;;;;;88.00;33.45;;;;;;;2.95;100.00;96127.06;4981546;28;20464;-59
2021/10/30 02:32:26;;;;;;;88.15;33.58;;;;;;;3.06;100.00;96129.03;4973651;28;20053;-58
2021/10/30 02:34:51;;;;;;;87.53;31.90;;;;;;;2.93;100.00;96110.38;4979664;28;20065;-57
2021/10/30 02:37:18;;;;;;;101.70;33.95;;;;;;;2.75;100.00;96115.13;4976041;28;20046;-60
2021/10/30 02:39:43;;;;;;;99.80;33.08;;;;;;;2.79;100.00;96124.97;4981245;28;20042;-58
2021/10/30 02:42:09;;;;;;;120.47;37.28;;;;;;;2.79;100.00;96118.75;4991415;28;20420;-59
2021/10/30 02:44:34;;;;;;;90.43;33.33;;;;;;;3.02;100.00;96108.38;4980951;28;20524;-60
2021/10/30 02:47:00;;;;;;;124.90;34.67;;;;;;;3.18;100.00;96111.25;4981568;28;20046;-60
2021/10/30 02:49:26;;;;;;;71.50;28.50;;;;;;;3.04;100.00;96112.34;4976231;28;20050;-59
2021/10/30 02:51:51;;;;;;;70.95;29.83;;;;;;;2.84;100.00;96100.41;4981747;28;20042;-59
2021/10/30 02:54:17;;;;;;;66.97;31.15;;;;;;;2.53;100.00;96094.63;4975497;28;20076;-58
2021/10/30 02:56:42;;;;;;;92.32;30.58;;;;;;;2.51;100.00;96096.88;4981804;28;20054;-59
2021/10/30 02:59:08;;;;;;;67.47;28.42;;;;;;;2.68;100.00;96094.81;4974034;28;20034;-59
2021/10/30 03:01:34;;;;;;;60.92;28.85;;;;;;;3.03;100.00;96083.69;4980344;28;20118;-60
2021/10/30 03:03:59;;;;;;;59.50;27.63;;;;;;;2.76;100.00;96092.38;4980866;28;20065;-57
2021/10/30 03:06:26;;;;;;;61.17;27.23;;;;;;;2.75;100.00;96093.50;4977061;28;20113;-60
2021/10/30 03:08:52;;;;;;;78.50;26.58;;;;;;;2.81;100.00;96092.97;4985934;28;20066;-57
2021/10/30 03:11:18;;;;;;;64.60;25.60;;;;;;;2.45;100.00;96101.69;4983483;28;20125;-58
2021/10/30 03:13:45;;;;;;;93.40;27.63;;;;;;;2.41;100.00;96089.91;4989236;28;20074;-60
2021/10/30 03:16:11;;;;;;;141.93;27.30;;;;;;;2.32;100.00;96073.75;4982555;28;20042;-59
2021/10/30 03:18:36;;;;;;;130.75;28.92;;;;;;;2.29;100.00;96074.44;4982543;28;20495;-61
2021/10/30 03:21:02;;;;;;;99.95;29.15;;;;;;;2.32;100.00;96072.97;4981655;28;20042;-60
2021/10/30 03:23:27;;;;;;;108.50;29.15;;;;;;;2.34;100.00;96062.63;4979416;28;20125;-59
2021/10/30 03:25:53;;;;;;;84.45;27.20;;;;;;;2.52;100.00;96056.00;4982099;28;20068;-59
2021/10/30 03:28:18;;;;;;;141.13;28.90;;;;;;;2.34;100.00;96054.50;4976411;28;20101;-58
2021/10/30 03:30:44;;;;;;;104.07;31.45;;;;;;;2.25;100.00;96043.75;4980821;28;20038;-59
2021/10/30 03:33:10;;;;;;;88.03;27.23;;;;;;;2.29;100.00;96055.53;4975700;28;20129;-60
2021/10/30 03:35:36;;;;;;;74.60;28.30;;;;;;;2.36;100.00;96049.56;4981127;28;20515;-60
2021/10/30 03:38:01;;;;;;;64.80;28.13;;;;;;;2.32;100.00;96043.25;4978464;28;20137;-56
2021/10/30 03:40:27;;;;;;;74.57;28.80;;;;;;;2.15;100.00;96038.75;4975226;28;20038;-55
2021/10/30 03:42:52;;;;;;;75.40;28.13;;;;;;;2.08;100.00;96034.66;4979781;28;20055;-58
2021/10/30 03:45:17;;;;;;;60.55;27.25;;;;;;;2.11;100.00;96044.03;4961777;28;20047;-57
2021/10/30 03:47:43;;;;;;;71.78;29.92;;;;;;;2.06;100.00;96028.78;4961488;28;20074;-58
2021/10/30 03:50:09;;;;;;;66.95;29.67;;;;;;;2.00;100.00;96018.50;4954531;28;20043;-59
2021/10/30 03:52:34;;;;;;;62.47;28.58;;;;;;;1.95;100.00;96035.69;4961197;28;20047;-59
2021/10/30 03:55:01;;;;;;;57.38;26.63;;;;;;;2.09;100.00;96033.56;4961544;28;20039;-60
2021/10/30 03:57:26;;;;;;;57.60;28.20;;;;;;;2.05;100.00;96024.53;4946287;28;20046;-58
2021/10/30 03:59:52;;;;;;;60.78;28.05;;;;;;;1.87;100.00;96021.13;4958571;28;20043;-60
2021/10/30 04:02:19;;;;;;;51.13;26.02;;;;;;;1.70;100.00;96013.91;4955333;28;20039;-58
2021/10/30 04:04:44;;;;;;;57.72;28.60;;;;;;;1.55;100.00;96014.47;4961551;28;20043;-58
2021/10/30 04:07:10;;;;;;;56.30;27.45;;;;;;;1.45;100.00;96004.03;4961581;28;20521;-57
2021/10/30 04:09:35;;;;;;;69.07;28.17;;;;;;;1.23;100.00;95995.06;4977152;28;20064;-57
2021/10/30 04:12:00;;;;;;;59.92;28.30;;;;;;;1.15;100.00;95993.19;4981304;28;20101;-59
2021/10/30 04:14:26;;;;;;;64.40;30.38;;;;;;;1.06;100.00;95981.66;4972915;28;20078;-56
2021/10/30 04:16:52;;;;;;;65.00;30.88;;;;;;;1.11;100.00;95982.25;4984218;28;20133;-58
2021/10/30 04:19:17;;;;;;;57.35;29.15;;;;;;;0.98;100.00;95967.09;4978606;28;20078;-58
2021/10/30 04:21:43;;;;;;;62.95;32.13;;;;;;;0.90;100.00;95957.09;4981804;28;20042;-58
2021/10/30 04:24:09;;;;;;;61.75;28.38;;;;;;;0.95;100.00;95963.13;4972433;28;20043;-60
2021/10/30 04:26:35;;;;;;;91.38;29.73;;;;;;;0.90;100.00;95960.63;4971039;28;20058;-59
2021/10/30 04:29:01;;;;;;;76.60;28.80;;;;;;;0.99;100.00;95951.69;4976426;28;20062;-60
2021/10/30 04:31:34;;;;;;;84.85;30.77;;;;;;;0.94;100.00;95945.38;4985774;28;20046;-60
2021/10/30 04:34:03;;;;;;;81.90;31.02;;;;;;;0.95;100.00;95948.84;4984677;28;20046;-61
2021/10/30 04:36:30;;;;;;;80.20;31.02;;;;;;;1.01;100.00;95950.28;4976973;28;20081;-61
2021/10/30 04:38:57;;;;;;;71.82;30.92;;;;;;;0.99;100.00;95941.72;4978182;28;20046;-62
2021/10/30 04:41:24;;;;;;;73.07;30.17;;;;;;;1.01;100.00;95936.78;4975410;28;20062;-60
2021/10/30 04:43:49;;;;;;;70.55;30.65;;;;;;;1.12;100.00;95942.63;4984043;28;20483;-60
2021/10/30 04:46:18;;;;;;;68.97;28.67;;;;;;;1.08;100.00;95945.16;4975527;28;20073;-57
2021/10/30 04:48:44;;;;;;;62.83;29.85;;;;;;;1.09;100.00;95941.34;4991522;28;20050;-61
2021/10/30 04:51:09;;;;;;;69.65;28.45;;;;;;;1.14;100.00;95937.69;4970984;28;20096;-58
2021/10/30 04:53:37;;;;;;;64.28;28.63;;;;;;;1.22;100.00;95936.06;4978942;28;20065;-57
2021/10/30 04:56:03;;;;;;;65.43;27.80;;;;;;;1.42;100.00;95921.03;4974924;28;20085;-61
2021/10/30 04:58:29;;;;;;;65.20;29.83;;;;;;;1.19;100.00;95932.13;4982594;28;20038;-58
2021/10/30 05:00:55;;;;;;;58.78;26.85;;;;;;;1.13;100.00;95917.22;4979355;28;20050;-59
2021/10/30 05:03:21;;;;;;;60.50;26.85;;;;;;;1.16;100.00;95913.88;4970113;28;20035;-57
2021/10/30 05:05:47;;;;;;;58.95;26.30;;;;;;;1.28;100.00;95924.75;4973206;28;20076;-60
2021/10/30 05:08:12;;;;;;;56.17;26.08;;;;;;;1.32;100.00;95927.59;4972569;28;20035;-60
2021/10/30 05:10:38;;;;;;;49.20;24.30;;;;;;;1.07;100.00;95923.91;4966422;28;20510;-59
2021/10/30 05:13:03;;;;;;;46.97;24.40;;;;;;;1.15;100.00;95923.06;4974494;28;20042;-59
2021/10/30 05:15:29;;;;;;;47.80;22.95;;;;;;;1.31;100.00;95907.13;4981156;28;20050;-60
2021/10/30 05:17:54;;;;;;;48.30;23.20;;;;;;;1.59;100.00;95925.56;4981717;28;20089;-58
2021/10/30 05:20:20;;;;;;;45.92;21.63;;;;;;;1.80;100.00;95910.16;4976490;28;20104;-59
2021/10/30 05:22:45;;;;;;;47.33;21.65;;;;;;;1.84;100.00;95913.78;4981793;28;20049;-60
2021/10/30 05:25:10;;;;;;;37.65;20.70;;;;;;;1.96;100.00;95912.25;4962860;28;20042;-57
2021/10/30 05:27:36;;;;;;;35.78;19.77;;;;;;;1.91;100.00;95918.66;4981133;28;20042;-61
2021/10/30 05:30:03;;;;;;;38.80;20.02;;;;;;;1.75;100.00;95914.94;4976410;28;20519;-59
2021/10/30 05:32:28;;;;;;;38.53;19.27;;;;;;;2.04;100.00;95903.31;4972697;28;20527;-61
2021/10/30 05:34:53;;;;;;;39.33;18.60;;;;;;;2.17;100.00;95896.03;4988426;28;20081;-60
2021/10/30 05:37:19;;;;;;;32.60;18.50;;;;;;;2.27;100.00;95899.13;4977879;28;20038;-61
2021/10/30 05:39:44;;;;;;;33.33;18.20;;;;;;;2.34;100.00;95901.28;5014301;28;20042;-59
2021/10/30 05:42:10;;;;;;;31.90;17.00;;;;;;;2.39;100.00;95894.88;5010726;28;20041;-61
2021/10/30 05:44:37;;;;;;;30.23;17.13;;;;;;;2.36;100.00;95884.72;4999563;28;20046;-60
2021/10/30 05:47:08;;;;;;;36.80;18.55;;;;;;;2.51;100.00;95877.91;4981007;28;20475;-62
2021/10/30 05:49:37;;;;;;;34.70;18.52;;;;;;;2.59;100.00;95883.22;4982501;28;20050;-60
2021/10/30 05:52:03;;;;;;;37.40;17.03;;;;;;;2.71;100.00;95881.66;4979450;28;20506;-60
2021/10/30 05:54:29;;;;;;;35.85;17.42;;;;;;;2.80;100.00;95866.13;4975778;28;20042;-62
2021/10/30 05:56:54;;;;;;;34.45;17.02;;;;;;;2.87;100.00;95874.47;4979841;28;20101;-60
2021/10/30 05:59:20;;;;;;;36.25;18.60;;;;;;;2.90;100.00;95868.41;4975782;28;20057;-60
2021/10/30 06:01:45;;;;;;;32.63;16.30;;;;;;;2.98;100.00;95861.28;4971665;28;20043;-61
2021/10/30 06:04:10;;;;;;;32.28;17.00;;;;;;;3.08;100.00;95862.75;4975253;28;20089;-60
2021/10/30 06:06:36;;;;;;;30.92;15.65;;;;;;;3.06;100.00;95858.47;4981944;28;20462;-58
2021/10/30 06:09:02;;;;;;;29.33;15.90;;;;;;;2.97;100.00;95852.41;4990080;28;20077;-62
2021/10/30 06:11:27;;;;;;;27.67;15.20;;;;;;;3.09;100.00;95848.88;4982557;28;20082;-60
2021/10/30 06:13:53;;;;;;;27.42;14.27;;;;;;;3.10;100.00;95841.56;4981875;28;20066;-62
2021/10/30 06:16:18;;;;;;;42.00;13.75;;;;;;;3.00;100.00;95851.69;4978907;28;20491;-59
2021/10/30 06:18:43;;;;;;;34.45;14.70;;;;;;;2.88;100.00;95840.88;4984164;28;20034;-61
2021/10/30 06:21:09;;;;;;;30.90;15.75;;;;;;;2.91;100.00;95834.00;4978409;28;20050;-62
2021/10/30 06:23:36;;;;;;;22.98;14.25;;;;;;;3.03;100.00;95845.63;4980243;28;20407;-61
2021/10/30 06:26:02;;;;;;;24.00;13.55;;;;;;;3.07;100.00;95832.19;4967989;28;20062;-60
2021/10/30 06:28:27;;;;;;;26.33;13.98;;;;;;;3.18;100.00;95829.84;4977386;28;20515;-56
2021/10/30 06:30:53;;;;;;;35.45;13.65;;;;;;;2.94;100.00;95815.19;4977847;28;20073;-60
2021/10/30 06:33:19;;;;;;;27.90;13.98;;;;;;;3.07;100.00;95810.56;4974370;28;20049;-61
2021/10/30 06:35:44;;;;;;;25.30;13.75;;;;;;;3.24;100.00;95799.50;4978486;28;20424;-61
2021/10/30 06:38:09;;;;;;;39.35;13.50;;;;;;;2.78;100.00;95795.38;4974981;28;20073;-60
2021/10/30 06:40:35;;;;;;;61.80;16.80;;;;;;;2.27;100.00;95782.94;4973907;28;20042;-60
2021/10/30 06:43:00;;;;;;;62.10;16.83;;;;;;;2.00;100.00;95783.53;4981525;28;20050;-60
2021/10/30 06:45:26;;;;;;;63.72;17.55;;;;;;;2.00;100.00;95778.13;4979692;28;20050;-61
2021/10/30 06:47:51;;;;;;;37.00;18.65;;;;;;;2.31;100.00;95766.06;4966623;28;20133;-61
2021/10/30 06:50:23;;;;;;;36.55;19.05;;;;;;;2.59;100.00;95758.88;4973890;28;20046;-60
2021/10/30 06:52:51;;;;;;;35.38;18.63;;;;;;;2.78;100.00;95762.91;4978924;28;20042;-59
2021/10/30 06:55:17;;;;;;;38.83;18.42;;;;;;;2.95;100.00;95759.94;4960687;28;20054;-58
2021/10/30 06:57:43;;;;;;;35.95;17.85;;;;;;;3.21;100.00;95765.00;4977148;28;20042;-61
2021/10/30 07:00:09;;;;;;;46.83;18.08;;;;;;;3.34;100.00;95756.84;4973721;28;20054;-60
2021/10/30 07:02:35;;;;;;;28.27;16.85;;;;;;;3.58;100.00;95755.97;4982039;28;20041;-59
2021/10/30 07:05:02;;;;;;;42.45;16.38;;;;;;;3.60;100.00;95759.13;4976656;28;20043;-59
2021/10/30 07:07:27;;;;;;;26.20;14.35;;;;;;;4.01;100.00;95754.44;4977672;28;20045;-59
2021/10/30 07:09:58;;;;;;;26.98;14.43;;;;;;;4.28;100.00;95747.38;4972281;28;20050;-58
2021/10/30 07:12:24;;;;;;;22.58;12.35;;;;;;;4.36;100.00;95757.28;4971599;28;20057;-61
2021/10/30 07:14:49;;;;;;;19.42;12.38;;;;;;;4.42;100.00;95757.81;4974346;28;20042;-60
2021/10/30 07:17:14;;;;;;;52.35;13.43;;;;;;;4.04;100.00;95756.44;4973250;28;20399;-60
2021/10/30 07:19:40;;;;;;;21.38;11.60;;;;;;;4.32;100.00;95742.84;4983671;28;20110;-61
2021/10/30 07:22:05;;;;;;;17.42;10.48;;;;;;;4.54;100.00;95754.22;4977551;28;20038;-62
2021/10/30 07:24:31;;;;;;;22.35;10.20;;;;;;;4.53;100.00;95758.06;4969168;28;20415;-60
2021/10/30 07:26:56;;;;;;;19.30;10.93;;;;;;;4.53;100.00;95764.25;4970707;28;20074;-59
2021/10/30 07:29:22;;;;;;;14.30;9.43;;;;;;;4.71;100.00;95763.91;4973508;28;20050;-59
2021/10/30 07:31:47;;;;;;;14.07;9.35;;;;;;;4.93;100.00;95765.19;4978784;28;20058;-61
2021/10/30 07:34:13;;;;;;;11.10;7.95;;;;;;;5.25;100.00;95770.56;4972827;28;20555;-62
2021/10/30 07:36:38;;;;;;;9.30;7.13;;;;;;;5.65;100.00;95772.19;4974657;28;20077;-60
2021/10/30 07:39:03;;;;;;;8.95;6.88;;;;;;;5.87;98.18;95776.09;4974797;28;20046;-60
2021/10/30 07:41:29;;;;;;;15.98;9.50;;;;;;;5.79;96.28;95772.47;4990521;28;20042;-60
2021/10/30 07:43:54;;;;;;;23.13;13.20;;;;;;;5.92;95.87;95751.34;4988111;28;20043;-61
2021/10/30 07:46:22;;;;;;;36.60;19.85;;;;;;;5.92;94.78;95748.63;4974183;28;20042;-61
2021/10/30 07:48:48;;;;;;;31.92;19.17;;;;;;;5.88;94.98;95745.84;4982868;28;20081;-62
2021/10/30 07:51:13;;;;;;;16.98;10.38;;;;;;;5.68;94.74;95741.59;4978731;28;20101;-59
2021/10/30 07:53:39;;;;;;;12.10;8.88;;;;;;;5.44;95.57;95748.06;4982088;28;20042;-62
2021/10/30 07:56:04;;;;;;;10.07;7.30;;;;;;;5.33;98.48;95736.97;4978456;28;20045;-61
2021/10/30 07:58:30;;;;;;;14.40;8.88;;;;;;;5.29;98.51;95731.47;4980908;28;20034;-60
2021/10/30 08:00:55;;;;;;;11.30;8.13;;;;;;;6.07;96.13;95720.63;4962658;28;20082;-60
2021/10/30 08:03:21;;;;;;;10.88;7.45;;;;;;;6.77;92.24;95720.56;4974191;28;20045;-59
2021/10/30 08:05:46;;;;;;;13.48;7.28;;;;;;;7.54;86.40;95715.81;4975315;28;20419;-60
2021/10/30 08:08:11;;;;;;;10.65;7.22;;;;;;;7.90;84.09;95722.44;4979203;28;20452;-61
2021/10/30 08:10:37;;;;;;;10.57;7.57;;;;;;;8.59;81.64;95721.97;4978729;28;20057;-58
2021/10/30 08:13:10;;;;;;;9.93;6.75;;;;;;;8.88;79.78;95730.38;4973845;28;20042;-60
2021/10/30 08:15:36;;;;;;;10.18;6.70;;;;;;;9.02;80.97;95734.38;4980846;28;20038;-57
2021/10/30 08:18:02;;;;;;;33.15;17.73;;;;;;;8.40;83.79;95750.22;4976521;28;20096;-60
2021/10/30 08:20:28;;;;;;;30.35;18.85;;;;;;;8.22;85.91;95741.88;4986532;28;20050;-61
2021/10/30 08:22:53;;;;;;;26.63;16.02;;;;;;;7.43;88.82;95732.78;4983466;28;20050;-60
2021/10/30 08:25:19;;;;;;;21.08;13.45;;;;;;;7.88;88.38;95723.97;4978928;28;20042;-58
2021/10/30 08:27:45;;;;;;;21.05;12.63;;;;;;;8.00;87.93;95724.50;4984369;28;20038;-59
2021/10/30 08:30:11;;;;;;;16.98;10.50;;;;;;;7.10;91.84;95719.13;4970551;28;20125;-60
2021/10/30 08:32:36;;;;;;;17.10;10.48;;;;;;;7.38;91.58;95730.41;4974415;28;20136;-60
2021/10/30 08:35:03;;;;;;;17.13;10.70;;;;;;;7.31;92.92;95718.63;4978192;28;20479;-59
2021/10/30 08:37:29;;;;;;;16.05;9.35;;;;;;;7.82;91.13;95720.81;4979325;28;20050;-59
2021/10/30 08:39:54;;;;;;;14.82;9.55;;;;;;;7.49;91.59;95738.72;4978448;28;20415;-60
2021/10/30 08:42:21;;;;;;;14.25;9.00;;;;;;;7.89;89.91;95753.59;4978055;28;20042;-61
2021/10/30 08:44:49;;;;;;;15.02;9.10;;;;;;;7.14;93.79;95723.47;4998376;23;20050;-63
2021/10/30 08:47:17;;;;;;;15.70;9.15;;;;;;;7.36;92.97;95726.47;4971210;28;20047;-63
2021/10/30 08:49:43;;;;;;;14.52;8.88;;;;;;;7.42;93.27;95706.72;4983419;28;20038;-63
2021/10/30 08:52:09;;;;;;;13.73;9.18;;;;;;;7.37;92.36;95725.31;4976354;28;20038;-62
2021/10/30 08:54:35;;;;;;;13.02;8.20;;;;;;;7.53;93.15;95715.03;4979160;28;20398;-63
2021/10/30 08:57:02;;;;;;;14.65;9.23;;;;;;;7.68;91.31;95723.38;4963472;28;20064;-62
2021/10/30 08:59:45;;;;;;;15.38;9.02;;;;;;;7.54;92.04;95704.91;4978088;28;20505;-63
2021/10/30 09:02:28;;;;;;;16.02;9.38;;;;;;;7.26;96.09;95700.69;4973767;28;20509;-62
2021/10/30 09:05:20;;;;;;;15.60;10.15;;;;;;;7.62;94.57;95712.78;4976765;28;20043;-62
2021/10/30 09:07:49;;;;;;;13.00;9.32;;;;;;;7.37;95.83;95717.16;4980788;28;20456;-61
2021/10/30 09:10:18;;;;;;;15.48;9.50;;;;;;;7.07;96.75;95710.53;4960252;28;20038;-63
2021/10/30 09:13:11;;;;;;;14.23;9.37;;;;;;;7.57;94.51;95706.88;4980722;28;20065;-60
2021/10/30 09:15:49;;;;;;;16.35;10.15;;;;;;;7.71;92.99;95693.44;4979140;28;20696;-61
2021/10/30 09:18:35;;;;;;;15.27;8.93;;;;;;;7.83;93.03;95693.19;4969799;28;20042;-62
2021/10/30 09:21:03;;;;;;;14.13;8.50;;;;;;;8.11;91.93;95682.94;4965127;28;20044;-63
2021/10/30 09:23:44;;;;;;;13.98;8.98;;;;;;;8.18;91.05;95697.41;4979767;28;20046;-63
2021/10/30 09:26:20;;;;;;;13.82;8.50;;;;;;;8.11;91.79;95699.31;4977794;28;20509;-63
2021/10/30 09:28:52;;;;;;;13.68;8.93;;;;;;;8.14;91.53;95691.16;4979071;28;20630;-61
2021/10/30 09:31:19;;;;;;;12.38;8.05;;;;;;;8.18;90.94;95693.91;4957593;28;20093;-62
2021/10/30 09:33:51;;;;;;;12.30;8.75;;;;;;;8.11;91.90;95702.81;4964552;28;20376;-63
2021/10/30 09:36:16;;;;;;;15.77;9.13;;;;;;;8.32;91.03;95690.50;4972313;28;20053;-62
2021/10/30 09:38:44;;;;;;;15.50;8.93;;;;;;;8.40;90.09;95694.88;4982020;28;20038;-59
2021/10/30 09:41:23;;;;;;;12.32;8.60;;;;;;;8.28;91.15;95692.44;4955463;28;20066;-60
2021/10/30 09:44:03;;;;;;;15.35;8.90;;;;;;;7.78;94.72;95711.81;4978061;28;20434;-60
2021/10/30 09:46:31;;;;;;;29.38;16.40;;;;;;;8.12;94.30;95701.66;4977924;28;20100;-63
2021/10/30 09:49:17;;;;;;;16.88;11.07;;;;;;;8.10;94.47;95700.44;4981604;28;20042;-62
2021/10/30 09:51:45;;;;;;;16.50;11.23;;;;;;;8.03;94.07;95712.88;4978984;28;20132;-62
2021/10/30 09:54:28;;;;;;;18.30;12.57;;;;;;;8.20;96.35;95722.38;4976575;28;20041;-62
2021/10/30 09:56:54;;;;;;;17.58;10.75;;;;;;;8.22;96.05;95716.53;4975170;28;20034;-62
2021/10/30 09:59:19;;;;;;;18.73;11.20;;;;;;;8.34;97.06;95697.19;4982982;28;20117;-60
2021/10/30 10:01:50;;;;;;;16.77;11.10;;;;;;;8.34;95.83;95701.84;4984871;28;20078;-60
2021/10/30 10:04:17;;;;;;;18.52;11.82;;;;;;;8.20;95.53;95707.97;4981724;28;20038;-59
2021/10/30 10:06:49;;;;;;;15.75;10.25;;;;;;;7.85;96.08;95720.06;4983884;28;20046;-61
2021/10/30 10:09:18;;;;;;;13.68;9.95;;;;;;;7.65;99.35;95722.16;4968993;28;20039;-59
2021/10/30 10:11:52;;;;;;;16.15;10.65;;;;;;;7.73;99.82;95728.50;4980290;28;20565;-60
2021/10/30 10:14:20;;;;;;;19.75;11.68;;;;;;;7.83;99.83;95722.38;4976002;28;20902;-60
2021/10/30 10:16:50;;;;;;;17.45;11.30;;;;;;;7.61;99.47;95733.00;4977843;28;20480;-61
2021/10/30 10:19:16;;;;;;;17.58;12.15;;;;;;;7.44;100.00;95719.97;4975903;28;20056;-61
2021/10/30 10:21:42;;;;;;;40.40;21.17;;;;;;;7.51;100.00;95720.06;4979680;28;20050;-61
2021/10/30 10:24:10;;;;;;;17.40;11.30;;;;;;;7.53;100.00;95706.06;4972985;28;20038;-61
2021/10/30 10:26:44;;;;;;;16.25;11.00;;;;;;;7.49;100.00;95713.41;4975767;28;20046;-62
2021/10/30 10:29:10;;;;;;;18.48;11.23;;;;;;;7.77;100.00;95708.28;4949559;28;20068;-58
2021/10/30 10:31:50;;;;;;;17.42;11.60;;;;;;;7.98;100.00;95712.41;4976691;28;20090;-62
2021/10/30 10:34:19;;;;;;;16.30;11.15;;;;;;;8.11;99.79;95713.72;4974833;28;20073;-63
2021/10/30 10:36:46;;;;;;;15.40;10.77;;;;;;;8.10;99.71;95711.34;4996971;28;20046;-63
2021/10/30 10:39:18;;;;;;;15.90;10.63;;;;;;;8.00;100.00;95713.59;4984736;28;20042;-61
2021/10/30 10:41:43;;;;;;;16.50;11.13;;;;;;;7.85;100.00;95709.94;4975562;28;20070;-62
2021/10/30 10:44:40;;;;;;;18.83;11.52;;;;;;;7.54;100.00;95716.56;4980242;28;20410;-61
2021/10/30 10:47:06;;;;;;;18.05;10.10;;;;;;;7.68;100.00;95710.53;4939147;28;20074;-62
2021/10/30 10:49:38;;;;;;;16.67;9.95;;;;;;;7.82;100.00;95709.91;4968153;28;20100;-61
2021/10/30 10:52:16;;;;;;;13.70;9.70;;;;;;;7.73;100.00;95706.69;4977235;28;20069;-65
2021/10/30 10:55:02;;;;;;;15.60;10.25;;;;;;;7.85;100.00;95715.41;4980505;28;20430;-63
2021/10/30 10:57:32;;;;;;;18.55;11.38;;;;;;;7.73;100.00;95715.66;4977229;28;20073;-63
2021/10/30 10:59:59;;;;;;;23.02;13.98;;;;;;;7.75;100.00;95723.44;4980623;28;20450;-62
2021/10/30 11:02:36;;;;;;;16.63;10.65;;;;;;;7.75;100.00;95726.19;4973513;28;20097;-62
2021/10/30 11:05:22;;;;;;;21.58;12.02;;;;;;;7.65;100.00;95730.34;4979951;28;20491;-64
2021/10/30 11:07:51;;;;;;;18.35;11.18;;;;;;;7.71;100.00;95731.59;4956638;28;20066;-63
2021/10/30 11:10:32;;;;;;;15.38;10.18;;;;;;;7.69;100.00;95735.81;4975439;28;20050;-63
2021/10/30 11:12:58;;;;;;;17.95;11.02;;;;;;;7.58;100.00;95741.16;4963368;28;20133;-63
2021/10/30 11:15:24;;;;;;;18.20;11.50;;;;;;;7.71;100.00;95730.81;4975877;28;20587;-62
2021/10/30 11:18:03;;;;;;;17.85;10.27;;;;;;;7.70;100.00;95740.91;4996398;28;20133;-64
2021/10/30 11:20:41;;;;;;;14.52;10.10;;;;;;;7.71;100.00;95747.94;4976713;28;20459;-61